Time;durP1;ratioP1;P1;durP2;ratioP2;P2;SDS_P1;SDS_P2;PMS_P1;PMS_P2;Temp;Humidity;BMP_temperature;BMP_pressure;BME280_temperature;BME280_humidity;BME280_pressure;Samples;Min_cycle;Max_cycle;Signal;HPM_P1;HPM_P2
2023/11/21 00:02:27;;;;;;;;;8.00;7.75;;;;;-143.90;100.00;74926.22;4947241;28;101647;-73
2023/11/21 00:04:54;;;;;;;;;17.75;13.50;;;;;-143.90;100.00;74942.75;4945449;28;103499;-73
2023/11/21 00:07:21;;;;;;;;;15.75;12.25;;;;;-143.90;100.00;74940.69;4945625;28;101995;-73
2023/11/21 00:09:48;;;;;;;;;18.25;12.50;;;;;-143.90;100.00;74940.69;4951620;28;101672;-73
2023/11/21 00:12:15;;;;;;;;;12.00;9.00;;;;;-143.90;100.00;74940.69;4952460;28;101690;-73
2023/11/21 00:14:41;;;;;;;;;14.00;11.50;;;;;-143.90;100.00;74944.81;4947638;28;103314;-73
2023/11/21 00:17:08;;;;;;;;;15.50;13.00;;;;;-143.90;100.00;74953.09;4936379;28;101804;-72
2023/11/21 00:19:36;;;;;;;;;13.00;12.75;;;;;-143.90;100.00;74961.34;4967503;28;101634;-73
2023/11/21 00:22:02;;;;;;;;;13.75;11.75;;;;;-143.90;100.00;74963.41;4946592;28;102187;-73
2023/11/21 00:24:29;;;;;;;;;19.00;13.50;;;;;-143.90;100.00;74973.75;4947542;28;108023;-73
2023/11/21 00:26:56;;;;;;;;;16.00;13.25;;;;;-143.90;100.00;74973.75;4952365;28;102776;-73
2023/11/21 00:29:22;;;;;;;;;13.25;12.00;;;;;-143.90;100.00;74969.63;4949444;28;101641;-73
2023/11/21 00:31:49;;;;;;;;;11.75;10.25;;;;;-143.90;100.00;74979.97;4948446;28;102210;-72
2023/11/21 00:34:16;;;;;;;;;13.25;11.00;;;;;-143.90;100.00;74982.03;4943415;28;103269;-72
2023/11/21 00:36:42;;;;;;;;;15.00;13.00;;;;;-143.90;100.00;74975.81;4944056;28;101821;-73
2023/11/21 00:39:09;;;;;;;;;16.50;11.00;;;;;-143.90;100.00;74984.09;4951424;28;102015;-73
2023/11/21 00:41:36;;;;;;;;;13.00;12.00;;;;;-143.90;100.00;74982.03;4947667;28;102318;-73
2023/11/21 00:44:03;;;;;;;;;11.75;11.00;;;;;-143.90;100.00;74986.16;4946460;28;103294;-73
2023/11/21 00:46:31;;;;;;;;;13.00;11.25;;;;;-143.90;100.00;74986.16;4948136;28;101557;-73
2023/11/21 00:48:57;;;;;;;;;10.00;8.75;;;;;-143.90;100.00;74984.09;4947892;28;101406;-73
2023/11/21 00:51:24;;;;;;;;;11.25;8.00;;;;;-143.90;100.00;74973.75;4948213;28;102895;-73
2023/11/21 00:53:51;;;;;;;;;6.00;3.00;;;;;-143.90;100.00;74969.63;4946398;28;103356;-74
2023/11/21 00:56:18;;;;;;;;;7.50;6.50;;;;;-143.90;100.00;74965.50;4945563;28;101682;-73
2023/11/21 00:58:49;;;;;;;;;7.00;4.00;;;;;-143.90;100.00;74967.56;4949842;28;102592;-71
2023/11/21 01:01:16;;;;;;;;;9.50;8.00;;;;;-143.90;100.00;74977.88;4944627;28;101682;-74
2023/11/21 01:03:43;;;;;;;;;6.75;6.00;;;;;-143.90;100.00;74961.34;4955594;28;103348;-73
2023/11/21 01:06:10;;;;;;;;;7.75;6.00;;;;;-143.90;100.00;74963.41;4949719;28;102155;-73
2023/11/21 01:08:39;;;;;;;;;8.25;7.00;;;;;-143.90;100.00;74969.63;4945857;28;106851;-73
2023/11/21 01:11:08;;;;;;;;;8.00;7.00;;;;;-143.90;100.00;74969.63;4944502;28;102813;-73
2023/11/21 01:13:35;;;;;;;;;14.25;11.50;;;;;-143.90;100.00;74967.56;4944080;28;103445;-73
2023/11/21 01:16:03;;;;;;;;;13.25;12.25;;;;;-143.90;100.00;74967.56;4950053;28;101758;-73
2023/11/21 01:18:30;;;;;;;;;15.75;11.50;;;;;-143.90;100.00;74961.34;4946902;28;101610;-73
2023/11/21 01:20:57;;;;;;;;;12.50;12.25;;;;;-143.90;100.00;74969.63;4942648;28;102735;-73
2023/11/21 01:23:24;;;;;;;;;19.25;14.00;;;;;-143.90;100.00;74973.75;4949828;28;103464;-72
2023/11/21 01:25:51;;;;;;;;;18.25;16.25;;;;;-143.90;100.00;74965.50;4947475;28;101620;-73
2023/11/21 01:28:19;;;;;;;;;14.25;11.50;;;;;-143.90;100.00;74965.50;4946738;28;101568;-73
2023/11/21 01:30:46;;;;;;;;;12.00;11.00;;;;;-143.90;100.00;74965.50;4946956;28;102898;-72
2023/11/21 01:33:15;;;;;;;;;12.00;10.75;;;;;-143.90;100.00;74969.63;4949561;28;103446;-72
2023/11/21 01:35:42;;;;;;;;;10.50;7.75;;;;;-143.90;100.00;74967.56;4941638;28;102909;-73
2023/11/21 01:38:09;;;;;;;;;13.00;10.00;;;;;-143.90;100.00;74963.41;4945386;28;106221;-72
2023/11/21 01:40:35;;;;;;;;;17.25;14.00;;;;;-143.90;100.00;74977.88;4943469;28;101902;-73
2023/11/21 01:43:05;;;;;;;;;16.00;13.75;;;;;-143.90;100.00;74982.03;4947179;28;103400;-72
2023/11/21 01:45:33;;;;;;;;;8.00;7.75;;;;;-143.90;100.00;74986.16;4943598;28;101478;-73
2023/11/21 01:48:01;;;;;;;;;12.25;11.00;;;;;-143.90;100.00;74977.88;4946601;28;101887;-73
2023/11/21 01:50:29;;;;;;;;;17.25;13.75;;;;;-143.90;100.00;74998.56;4946816;28;101604;-73
2023/11/21 01:52:56;;;;;;;;;16.50;13.75;;;;;-143.90;100.00;74988.22;4944136;28;103417;-73
2023/11/21 01:55:23;;;;;;;;;16.00;13.50;;;;;-143.90;100.00;74986.16;4943057;28;101946;-73
2023/11/21 01:57:55;;;;;;;;;12.75;10.00;;;;;-143.90;100.00;74986.16;4942267;28;101648;-72
2023/11/21 02:00:23;;;;;;;;;12.75;10.00;;;;;-143.90;100.00;74994.44;4946833;28;101582;-73
2023/11/21 02:02:50;;;;;;;;;12.25;8.25;;;;;-143.90;100.00;74998.56;4943127;28;103330;-73
2023/11/21 02:05:19;;;;;;;;;9.00;8.25;;;;;-143.90;100.00;74998.56;4938706;28;102010;-73
2023/11/21 02:07:52;;;;;;;;;14.00;8.00;;;;;-143.90;100.00;74990.28;4944910;28;102006;-73
2023/11/21 02:10:22;;;;;;;;;10.00;8.25;;;;;-143.90;100.00;75002.69;4947273;28;101672;-73
2023/11/21 02:12:52;;;;;;;;;11.75;10.75;;;;;-143.90;100.00;75002.69;4944723;28;103600;-73
2023/11/21 02:15:23;;;;;;;;;11.50;7.75;;;;;-143.90;100.00;75006.84;4941090;28;101979;-73
2023/11/21 02:17:51;;;;;;;;;10.75;8.25;;;;;-143.90;100.00;75004.75;4942105;28;101848;-73
2023/11/21 02:20:22;;;;;;;;;6.50;6.50;;;;;-143.90;100.00;75002.69;4948849;28;101916;-74
2023/11/21 02:23:00;;;;;;;;;8.25;7.00;;;;;-143.90;100.00;75006.84;4943818;28;103491;-72
2023/11/21 02:25:29;;;;;;;;;10.50;7.00;;;;;-143.90;100.00;75002.69;4939715;28;101655;-73
2023/11/21 02:28:01;;;;;;;;;9.75;7.50;;;;;-143.90;100.00;75006.84;4945893;28;102925;-72
2023/11/21 02:30:28;;;;;;;;;8.50;8.50;;;;;-143.90;100.00;75021.31;4947196;28;102006;-73
2023/11/21 02:32:56;;;;;;;;;9.00;8.00;;;;;-143.90;100.00;75019.22;4942354;28;104118;-74
2023/11/21 02:35:23;;;;;;;;;6.25;6.25;;;;;-143.90;100.00;75015.09;4942793;28;101831;-73
2023/11/21 02:37:52;;;;;;;;;5.50;5.50;;;;;-143.90;100.00;75015.09;4943949;28;101536;-74
2023/11/21 02:40:24;;;;;;;;;8.75;8.75;;;;;-143.90;100.00;75023.38;4946311;28;102936;-73
2023/11/21 02:42:51;;;;;;;;;8.25;7.75;;;;;-143.90;100.00;75033.72;4943881;28;103433;-74
2023/11/21 02:45:20;;;;;;;;;7.25;7.25;;;;;-143.90;100.00;75031.63;4944165;28;101635;-74
2023/11/21 02:47:49;;;;;;;;;8.00;7.50;;;;;-143.90;100.00;75031.63;4948417;28;101547;-73
2023/11/21 02:50:18;;;;;;;;;10.00;8.00;;;;;-143.90;100.00;75056.44;4948229;28;101933;-73
2023/11/21 02:52:45;;;;;;;;;8.75;8.00;;;;;-143.90;100.00;75058.50;4945747;28;103479;-73
2023/11/21 02:55:12;;;;;;;;;12.75;10.75;;;;;-143.90;100.00;75056.44;4947233;28;101811;-73
2023/11/21 02:57:39;;;;;;;;;8.50;7.00;;;;;-143.90;100.00;75056.44;4949437;28;102166;-73
2023/11/21 03:00:14;;;;;;;;;11.00;8.25;;;;;-143.90;100.00;75056.44;4948519;28;102203;-72
2023/11/21 03:02:42;;;;;;;;;7.25;7.25;;;;;-143.90;100.00;75050.25;4941309;28;103363;-73
2023/11/21 03:05:09;;;;;;;;;8.25;8.25;;;;;-143.90;100.00;75056.44;4942269;28;101653;-73
2023/11/21 03:07:39;;;;;;;;;11.25;9.00;;;;;-143.90;100.00;75052.31;4945673;28;101937;-73
2023/11/21 03:10:11;;;;;;;;;8.25;7.00;;;;;-143.90;100.00;75052.31;4946232;28;102020;-72
2023/11/21 03:12:39;;;;;;;;;7.00;6.00;;;;;-143.90;100.00;75048.19;4942333;28;103201;-74
2023/11/21 03:15:06;;;;;;;;;8.00;7.25;;;;;-143.90;100.00;75050.25;4947775;28;101781;-73
2023/11/21 03:17:36;;;;;;;;;10.50;7.50;;;;;-143.90;100.00;75058.50;4945723;28;101606;-74
2023/11/21 03:20:04;;;;;;;;;8.00;4.00;;;;;-143.90;100.00;75056.44;4942041;28;101575;-73
2023/11/21 03:22:31;;;;;;;;;9.00;7.25;;;;;-143.90;100.00;75056.44;4946693;28;107840;-74
2023/11/21 03:24:58;;;;;;;;;5.00;3.75;;;;;-143.90;100.00;75054.38;4947463;28;101631;-73
2023/11/21 03:27:25;;;;;;;;;8.50;8.50;;;;;-143.90;100.00;75060.59;4948032;28;101712;-74
2023/11/21 03:29:52;;;;;;;;;7.50;7.25;;;;;-143.90;100.00;75064.72;4944574;28;101697;-73
2023/11/21 03:32:18;;;;;;;;;8.00;7.75;;;;;-143.90;100.00;75064.72;4944741;28;103311;-74
2023/11/21 03:34:56;;;;;;;;;6.50;5.50;;;;;-143.90;100.00;75062.66;4946622;28;103347;-73
2023/11/21 03:37:24;;;;;;;;;7.00;6.00;;;;;-143.90;100.00;75060.59;4944874;28;101647;-73
2023/11/21 03:39:51;;;;;;;;;8.75;7.00;;;;;-143.90;100.00;75060.59;4943859;28;101887;-73
2023/11/21 03:42:18;;;;;;;;;7.25;5.00;;;;;-143.90;100.00;75066.78;4945140;28;103374;-73
2023/11/21 03:44:44;;;;;;;;;6.00;5.00;;;;;-143.90;100.00;75064.72;4946283;28;102430;-73
2023/11/21 03:47:11;;;;;;;;;7.00;6.75;;;;;-143.90;100.00;75062.66;4946467;28;101727;-73
2023/11/21 03:49:38;;;;;;;;;8.75;7.00;;;;;-143.90;100.00;75066.78;4943628;28;101775;-73
2023/11/21 03:52:07;;;;;;;;;11.00;8.25;;;;;-143.90;100.00;75079.19;4945194;28;103524;-73
2023/11/21 03:54:34;;;;;;;;;7.50;7.00;;;;;-143.90;100.00;75072.97;4946693;28;101545;-73
2023/11/21 03:57:00;;;;;;;;;8.25;7.00;;;;;-143.90;100.00;75077.13;4943653;28;103277;-73
2023/11/21 03:59:27;;;;;;;;;9.00;6.50;;;;;-143.90;100.00;75081.25;4944963;28;101906;-73
2023/11/21 04:01:56;;;;;;;;;9.50;7.50;;;;;-143.90;100.00;75077.13;4944458;28;103333;-73
2023/11/21 04:04:23;;;;;;;;;10.25;8.50;;;;;-143.90;100.00;75093.66;4941201;28;101905;-73
2023/11/21 04:06:51;;;;;;;;;10.25;8.50;;;;;-143.90;100.00;75093.66;4938540;28;101884;-73
2023/11/21 04:09:18;;;;;;;;;8.75;7.75;;;;;-143.90;100.00;75093.66;4942513;28;102464;-73
2023/11/21 04:11:45;;;;;;;;;10.25;9.75;;;;;-143.90;100.00;75091.59;4943726;28;103572;-73
2023/11/21 04:14:13;;;;;;;;;6.25;6.00;;;;;-143.90;100.00;75093.66;4944826;28;101498;-73
2023/11/21 04:16:40;;;;;;;;;9.50;7.00;;;;;-143.90;100.00;75093.66;4940726;28;101816;-73
2023/11/21 04:19:10;;;;;;;;;8.50;8.50;;;;;-143.90;100.00;75106.06;4948632;28;101729;-72
2023/11/21 04:21:37;;;;;;;;;7.25;6.25;;;;;-143.90;100.00;75091.59;4941720;28;103530;-73
2023/11/21 04:24:04;;;;;;;;;11.25;7.75;;;;;-143.90;100.00;75081.25;4942143;28;101630;-74
2023/11/21 04:26:31;;;;;;;;;11.00;8.75;;;;;-143.90;100.00;75114.34;4940119;28;101643;-73
2023/11/21 04:28:57;;;;;;;;;11.75;8.75;;;;;-143.90;100.00;75104.00;4949073;28;101725;-73
2023/11/21 04:31:24;;;;;;;;;13.25;10.00;;;;;-143.90;100.00;75108.13;4940790;28;103516;-73
2023/11/21 04:33:51;;;;;;;;;8.25;7.25;;;;;-143.90;100.00;75110.19;4943562;28;102286;-72
2023/11/21 04:36:19;;;;;;;;;12.50;8.75;;;;;-143.90;100.00;75118.47;4945688;28;101540;-73
2023/11/21 04:38:46;;;;;;;;;8.00;4.50;;;;;-143.90;100.00;75101.94;4948030;28;102091;-73
2023/11/21 04:41:13;;;;;;;;;7.50;7.25;;;;;-143.90;100.00;75114.34;4944251;28;103391;-71
2023/11/21 04:43:52;;;;;;;;;;;;;;;;;;;;;
2023/11/21 04:46:22;;;;;;;;;6.25;5.50;;;;;-143.90;100.00;75106.06;4940617;28;102074;-73
2023/11/21 04:48:49;;;;;;;;;8.50;7.75;;;;;-143.90;100.00;75110.19;4943305;28;102456;-74
2023/11/21 04:51:15;;;;;;;;;11.50;8.50;;;;;-143.90;100.00;75114.34;4944550;28;103565;-73
2023/11/21 04:53:42;;;;;;;;;10.50;7.75;;;;;-143.90;100.00;75126.75;4945636;28;102810;-72
2023/11/21 04:56:09;;;;;;;;;8.00;7.00;;;;;-143.90;100.00;75126.75;4949670;28;101494;-74
2023/11/21 04:58:36;;;;;;;;;8.25;7.75;;;;;-143.90;100.00;75139.16;4952039;28;101784;-72
2023/11/21 05:01:03;;;;;;;;;6.75;6.50;;;;;-143.90;100.00;75126.75;4947607;28;108134;-73
2023/11/21 05:03:34;;;;;;;;;9.50;9.00;;;;;-143.90;100.00;75143.28;4946936;28;102290;-73
2023/11/21 05:06:00;;;;;;;;;10.25;7.50;;;;;-143.90;100.00;75132.94;4948034;28;101656;-72
2023/11/21 05:08:27;;;;;;;;;9.00;7.75;;;;;-143.90;100.00;75137.06;4947029;28;101932;-72
2023/11/21 05:10:54;;;;;;;;;13.75;11.50;;;;;-143.90;100.00;75139.16;4945895;28;103337;-73
2023/11/21 05:13:20;;;;;;;;;6.50;6.25;;;;;-143.90;100.00;75135.00;4943304;28;101729;-73
2023/11/21 05:15:47;;;;;;;;;11.50;10.75;;;;;-143.90;100.00;75139.16;4946687;28;101513;-73
2023/11/21 05:18:14;;;;;;;;;13.50;11.00;;;;;-143.90;100.00;75135.00;4946899;28;101940;-72
2023/11/21 05:20:41;;;;;;;;;20.50;15.75;;;;;-143.90;100.00;75139.16;4945178;28;103319;-72
2023/11/21 05:23:07;;;;;;;;;16.25;13.75;;;;;-143.90;100.00;75137.06;4946866;28;103126;-72
2023/11/21 05:25:34;;;;;;;;;12.25;12.25;;;;;-143.90;100.00;75130.88;4950941;28;102698;-72
2023/11/21 05:28:04;;;;;;;;;12.75;11.75;;;;;-143.90;100.00;75137.06;4945094;28;101640;-72
2023/11/21 05:30:30;;;;;;;;;14.00;10.25;;;;;-143.90;100.00;75126.75;4946987;28;103176;-73
2023/11/21 05:32:57;;;;;;;;;11.00;11.00;;;;;-143.90;100.00;75118.47;4948191;28;101917;-72
2023/11/21 05:35:23;;;;;;;;;18.00;14.50;;;;;-143.90;100.00;75126.75;4944238;28;101759;-72
2023/11/21 05:37:50;;;;;;;;;16.50;14.00;;;;;-143.90;100.00;75126.75;4949362;28;103208;-72
2023/11/21 05:40:17;;;;;;;;;19.75;18.00;;;;;-143.90;100.00;75135.00;4941710;28;103518;-72
2023/11/21 05:42:44;;;;;;;;;22.25;18.00;;;;;-143.90;100.00;75139.16;4950807;28;101796;-72
2023/11/21 05:45:11;;;;;;;;;18.75;17.50;;;;;-143.90;100.00;75139.16;4945919;28;101718;-73
2023/11/21 05:47:43;;;;;;;;;28.25;19.00;;;;;-143.90;100.00;75155.69;4948805;28;101633;-74
2023/11/21 05:50:12;;;;;;;;;26.50;21.75;;;;;-143.90;100.00;75163.94;4946105;28;103341;-74
2023/11/21 05:52:41;;;;;;;;;20.75;18.25;;;;;-143.90;100.00;75155.69;4948518;28;101795;-72
2023/11/21 05:55:09;;;;;;;;;25.00;22.25;;;;;-143.90;100.00;75163.94;4951066;28;102563;-72
2023/11/21 05:57:37;;;;;;;;;17.25;16.25;;;;;-143.90;100.00;75155.69;4954889;28;101736;-74
2023/11/21 06:00:32;;;;;;;;;22.75;20.50;;;;;-143.90;100.00;75155.69;4946833;28;107723;-74
2023/11/21 06:02:57;;;;;;;;;20.75;19.00;;;;;-143.90;100.00;75147.41;4945136;28;102179;-73
2023/11/21 06:05:25;;;;;;;;;17.75;17.25;;;;;-143.90;100.00;75147.41;4948073;28;103031;-74
2023/11/21 06:07:54;;;;;;;;;18.00;18.00;;;;;-143.90;100.00;75147.41;4947423;28;101670;-72
2023/11/21 06:10:23;;;;;;;;;17.75;15.75;;;;;-143.90;100.00;75155.69;4943141;28;106993;-72
2023/11/21 06:12:51;;;;;;;;;20.75;17.75;;;;;-143.90;100.00;75151.53;4946521;28;101702;-72
2023/11/21 06:15:22;;;;;;;;;21.50;20.00;;;;;-143.90;100.00;75163.94;4943065;28;101563;-73
2023/11/21 06:17:52;;;;;;;;;15.25;13.50;;;;;-143.90;100.00;75166.03;4946626;28;102285;-74
2023/11/21 06:20:22;;;;;;;;;18.50;13.00;;;;;-143.90;100.00;75168.09;4948682;28;103359;-73
2023/11/21 06:22:50;;;;;;;;;22.00;17.50;;;;;-143.90;100.00;75168.09;4948567;28;102563;-73
2023/11/21 06:25:17;;;;;;;;;15.50;15.50;;;;;-143.90;100.00;75172.22;4944865;28;102216;-73
2023/11/21 06:27:45;;;;;;;;;8.75;7.25;;;;;-143.90;100.00;75172.22;4943871;28;101551;-73
2023/11/21 06:30:13;;;;;;;;;22.00;19.25;;;;;-143.90;100.00;75176.34;4948352;28;103531;-74
2023/11/21 06:32:42;;;;;;;;;26.75;23.75;;;;;-143.90;100.00;75197.03;4944872;28;101608;-73
2023/11/21 06:35:09;;;;;;;;;20.50;18.00;;;;;-143.90;100.00;75184.63;4944726;28;101834;-73
2023/11/21 06:37:37;;;;;;;;;22.00;16.75;;;;;-143.90;100.00;75192.91;4944826;28;101634;-72
2023/11/21 06:40:04;;;;;;;;;18.25;14.50;;;;;-143.90;100.00;75184.63;4946783;28;108001;-73
2023/11/21 06:42:31;;;;;;;;;18.25;16.25;;;;;-143.90;100.00;75192.91;4943516;28;101679;-72
2023/11/21 06:44:58;;;;;;;;;12.25;9.25;;;;;-143.90;100.00;75188.75;4940779;28;101589;-74
2023/11/21 06:47:25;;;;;;;;;12.75;12.00;;;;;-143.90;100.00;75182.56;4945701;28;102432;-74
2023/11/21 06:49:53;;;;;;;;;14.75;11.50;;;;;-143.90;100.00;75174.28;4944067;28;103690;-73
2023/11/21 06:52:20;;;;;;;;;14.25;10.75;;;;;-143.90;100.00;75180.50;4943688;28;102044;-74
2023/11/21 06:54:49;;;;;;;;;17.75;14.00;;;;;-143.90;100.00;75184.63;4941695;28;101907;-73
2023/11/21 06:57:16;;;;;;;;;15.25;15.25;;;;;-143.90;100.00;75186.69;4947850;28;102062;-74
2023/11/21 06:59:42;;;;;;;;;20.00;18.75;;;;;-143.90;100.00;75192.91;4945069;28;103566;-73
2023/11/21 07:02:09;;;;;;;;;23.50;19.50;;;;;-143.90;100.00;75197.03;4942870;28;101608;-73
2023/11/21 07:04:36;;;;;;;;;21.75;16.25;;;;;-143.90;100.00;75190.81;4945620;28;101641;-73
2023/11/21 07:07:03;;;;;;;;;25.50;20.25;;;;;-143.90;100.00;75203.22;4950151;28;102047;-73
2023/11/21 07:09:31;;;;;;;;;22.25;21.50;;;;;-143.90;100.00;75201.16;4945291;28;103761;-72
2023/11/21 07:11:57;;;;;;;;;32.25;24.25;;;;;-143.90;100.00;75211.50;4940214;28;101917;-73
2023/11/21 07:14:24;;;;;;;;;20.50;20.50;;;;;-143.90;100.00;75201.16;4944905;28;101973;-73
2023/11/21 07:16:52;;;;;;;;;26.25;22.75;;;;;-143.90;100.00;75211.50;4948104;28;101798;-72
2023/11/21 07:19:19;;;;;;;;;25.75;19.25;;;;;-143.90;100.00;75199.09;4943663;28;103354;-72
2023/11/21 07:21:46;;;;;;;;;28.00;21.50;;;;;-143.90;100.00;75199.09;4941323;28;101561;-72
2023/11/21 07:24:14;;;;;;;;;19.50;18.50;;;;;-143.90;100.00;75197.03;4947852;28;101826;-72
2023/11/21 07:26:40;;;;;;;;;21.75;18.75;;;;;-143.90;100.00;75192.91;4946003;28;101995;-72
2023/11/21 07:29:07;;;;;;;;;29.75;23.00;;;;;-143.90;100.00;75199.09;4943277;28;103022;-69
2023/11/21 07:31:34;;;;;;;;;27.75;23.50;;;;;-143.90;100.00;75203.22;4941001;28;101833;-72
2023/11/21 07:34:01;;;;;;;;;33.25;28.00;;;;;-143.90;100.00;75209.44;4945396;28;102117;-72
2023/11/21 07:36:27;;;;;;;;;26.50;22.75;;;;;-143.90;100.00;75201.16;4946182;28;101921;-72
2023/11/21 07:38:54;;;;;;;;;24.25;19.00;;;;;-143.90;100.00;75197.03;4941419;28;103370;-72
2023/11/21 07:41:22;;;;;;;;;20.00;18.75;;;;;-143.90;100.00;75194.97;4942329;28;101693;-72
2023/11/21 07:43:57;;;;;;;;;25.00;18.50;;;;;-143.90;100.00;75192.91;4945830;28;102226;-72
2023/11/21 07:46:26;;;;;;;;;35.75;28.50;;;;;-143.90;100.00;75199.09;4944188;28;101755;-73
2023/11/21 07:48:53;;;;;;;;;27.25;23.00;;;;;-143.90;100.00;75201.16;4941139;28;103432;-73
2023/11/21 07:51:20;;;;;;;;;24.75;23.75;;;;;-143.90;100.00;75199.09;4937620;28;101693;-73
2023/11/21 07:53:46;;;;;;;;;27.00;23.75;;;;;-143.90;100.00;75209.44;4943529;28;102044;-73
2023/11/21 07:56:13;;;;;;;;;33.00;28.50;;;;;-143.90;100.00;75201.16;4943484;28;102896;-72
2023/11/21 07:58:39;;;;;;;;;29.00;24.50;;;;;-143.90;100.00;75188.75;4944371;28;103454;-72
2023/11/21 08:01:07;;;;;;;;;21.25;19.25;;;;;-143.90;100.00;75176.34;4950372;28;101571;-73
2023/11/21 08:03:34;;;;;;;;;24.75;19.25;;;;;-143.90;100.00;75176.34;4944741;28;102023;-72
2023/11/21 08:06:03;;;;;;;;;25.25;23.00;;;;;-143.90;100.00;75180.50;4943189;28;102734;-72
2023/11/21 08:08:29;;;;;;;;;24.50;20.00;;;;;-143.90;100.00;75170.16;4944648;28;103307;-72
2023/11/21 08:10:56;;;;;;;;;21.25;19.00;;;;;-143.90;100.00;75170.16;4949185;28;101668;-72
2023/11/21 08:13:27;;;;;;;;;35.25;32.25;;;;;-143.90;100.00;75176.34;4945821;28;101710;-73
2023/11/21 08:15:56;;;;;;;;;26.75;25.00;;;;;-143.90;100.00;75178.41;4946615;28;101769;-72
2023/11/21 08:18:23;;;;;;;;;24.00;21.25;;;;;-143.90;100.00;75166.03;4941999;28;103494;-73
2023/11/21 08:21:04;;;;;;;;;21.25;14.00;;;;;-143.90;100.00;75151.53;4947338;28;101806;-72
2023/11/21 08:23:31;;;;;;;;;19.75;19.00;;;;;-143.90;100.00;75141.22;4945827;28;101822;-73
2023/11/21 08:25:57;;;;;;;;;22.50;18.50;;;;;-143.90;100.00;75151.53;4946730;28;102492;-73
2023/11/21 08:28:25;;;;;;;;;19.00;15.25;;;;;-143.90;100.00;75139.16;4947614;28;103393;-72
2023/11/21 08:30:54;;;;;;;;;27.50;20.75;;;;;-143.90;100.00;75141.22;4953701;28;101951;-73
2023/11/21 08:33:21;;;;;;;;;23.50;20.50;;;;;-143.90;100.00;75149.47;4936124;28;101864;-73
2023/11/21 08:35:48;;;;;;;;;23.25;18.50;;;;;-143.90;100.00;75132.94;4941562;28;101888;-73
2023/11/21 08:38:15;;;;;;;;;14.75;11.50;;;;;-143.90;100.00;75130.88;4945535;28;103318;-73
2023/11/21 08:40:41;;;;;;;;;31.25;28.00;;;;;-143.90;100.00;75147.41;4947752;28;102066;-72
2023/11/21 08:43:08;;;;;;;;;22.25;20.50;;;;;-143.90;100.00;75137.06;4948022;28;101824;-73
2023/11/21 08:45:35;;;;;;;;;26.25;24.00;;;;;-143.90;100.00;75141.22;4947437;28;101606;-72
2023/11/21 08:48:02;;;;;;;;;28.25;21.25;;;;;-143.90;100.00;75143.28;4951837;28;103694;-73
2023/11/21 08:50:29;;;;;;;;;23.75;21.00;;;;;-143.90;100.00;75149.47;4948548;28;101938;-73
2023/11/21 08:52:55;;;;;;;;;23.00;18.25;;;;;-143.90;100.00;75147.41;4943728;28;102705;-73
2023/11/21 08:55:22;;;;;;;;;24.50;20.25;;;;;-143.90;100.00;75161.88;4946783;28;102129;-73
2023/11/21 08:57:49;;;;;;;;;23.00;17.25;;;;;-143.90;100.00;75155.69;4951048;28;103392;-73
2023/11/21 09:00:19;;;;;;;;;26.50;20.00;;;;;-143.90;100.00;75157.75;4946504;28;101656;-73
2023/11/21 09:02:46;;;;;;;;;24.00;19.50;;;;;-143.90;100.00;75157.75;4943967;28;102648;-73
2023/11/21 09:05:15;;;;;;;;;33.50;23.75;;;;;-143.90;100.00;75178.41;4946389;28;101865;-73
2023/11/21 09:07:42;;;;;;;;;29.00;28.25;;;;;-143.90;100.00;75186.69;4949504;28;103337;-73
2023/11/21 09:10:09;;;;;;;;;25.25;23.00;;;;;-143.90;100.00;75184.63;4946006;28;101560;-72
2023/11/21 09:12:37;;;;;;;;;18.75;15.50;;;;;-143.90;100.00;75166.03;4947161;28;101713;-73
2023/11/21 09:15:06;;;;;;;;;25.00;21.25;;;;;-143.90;100.00;75163.94;4945551;28;101813;-73
2023/11/21 09:17:34;;;;;;;;;22.00;19.75;;;;;-143.90;100.00;75153.63;4948334;28;108331;-73
2023/11/21 09:20:03;;;;;;;;;29.25;25.00;;;;;-143.90;100.00;75159.81;4946643;28;102672;-73
2023/11/21 09:22:31;;;;;;;;;29.00;26.25;;;;;-143.90;100.00;75168.09;4945399;28;102440;-73
2023/11/21 09:24:58;;;;;;;;;26.00;25.00;;;;;-143.90;100.00;75176.34;4950755;28;103227;-73
2023/11/21 09:27:25;;;;;;;;;31.75;27.00;;;;;-143.90;100.00;75184.63;4947119;28;103478;-73
2023/11/21 09:29:57;;;;;;;;;21.25;20.00;;;;;-143.90;100.00;75180.50;4943633;28;101868;-73
2023/11/21 09:32:24;;;;;;;;;23.00;19.75;;;;;-143.90;100.00;75180.50;4943201;28;101594;-73
2023/11/21 09:34:51;;;;;;;;;23.25;21.75;;;;;-143.90;100.00;75172.22;4950058;28;101701;-73
2023/11/21 09:37:18;;;;;;;;;34.25;30.00;;;;;-143.90;100.00;75188.75;4946189;28;103427;-73
2023/11/21 09:39:47;;;;;;;;;31.25;26.75;;;;;-143.90;100.00;75168.09;4945355;28;101668;-73
2023/11/21 09:42:25;;;;;;;;;28.50;27.00;;;;;-143.90;100.00;75170.16;4951384;28;101703;-73
2023/11/21 09:45:27;;;;;;;;;33.75;30.75;;;;;-143.90;100.00;75151.53;4947733;28;101648;-73
2023/11/21 09:47:57;;;;;;;;;23.25;18.00;;;;;-143.90;100.00;75116.41;4944527;28;108040;-73
2023/11/21 09:50:26;;;;;;;;;25.50;23.00;;;;;-143.90;100.00;75118.47;4945589;28;101799;-73
2023/11/21 09:53:00;;;;;;;;;37.50;29.00;;;;;-143.90;100.00;75118.47;4951079;28;102356;-73
2023/11/21 09:55:35;;;;;;;;;19.75;19.75;;;;;-143.90;100.00;75104.00;4947025;28;101733;-73
2023/11/21 09:58:11;;;;;;;;;25.50;23.25;;;;;-143.90;100.00;75093.66;4941527;28;103344;-74
2023/11/21 10:00:43;;;;;;;;;25.25;21.00;;;;;-143.90;100.00;75087.47;4943027;28;102485;-71
2023/11/21 10:03:11;;;;;;;;;16.25;16.00;;;;;-143.90;100.00;75075.06;4946710;28;101842;-73
2023/11/21 10:05:40;;;;;;;;;20.00;19.75;;;;;-143.90;100.00;75072.97;4947203;28;101679;-72
2023/11/21 10:08:11;;;;;;;;;31.25;27.75;;;;;-143.90;100.00;75106.06;4943560;28;107647;-73
2023/11/21 10:10:44;;;;;;;;;28.50;27.25;;;;;-143.90;100.00;75101.94;4945256;28;101635;-72
2023/11/21 10:13:15;;;;;;;;;25.50;22.50;;;;;-143.90;100.00;75097.78;4942760;28;101669;-72
2023/11/21 10:15:48;;;;;;;;;22.75;16.50;;;;;-143.90;100.00;75089.53;4947212;28;101706;-73
2023/11/21 10:18:16;;;;;;;;;20.50;15.25;;;;;-143.90;100.00;75087.47;4940656;28;103355;-72
2023/11/21 10:20:44;;;;;;;;;22.50;18.25;;;;;-143.90;100.00;75079.19;4941774;28;101587;-73
2023/11/21 10:23:11;;;;;;;;;20.75;18.25;;;;;-143.90;100.00;75083.31;4944747;28;101684;-72
2023/11/21 10:25:38;;;;;;;;;25.25;21.50;;;;;-143.90;100.00;75089.53;4945227;28;101759;-71
2023/11/21 10:28:05;;;;;;;;;19.00;14.25;;;;;-143.90;100.00;75072.97;4945444;28;103683;-73
2023/11/21 10:30:37;;;;;;;;;28.25;20.00;;;;;-143.90;100.00;75060.59;4949065;28;101632;-73
2023/11/21 10:33:05;;;;;;;;;19.75;17.50;;;;;-143.90;100.00;75046.09;4941257;28;103146;-72
2023/11/21 10:36:01;;;;;;;;;20.00;17.25;;;;;-143.90;100.00;75046.09;4944461;28;102076;-72
2023/11/21 10:38:28;;;;;;;;;18.00;14.75;;;;;-143.90;100.00;75033.72;4940132;28;107816;-72
2023/11/21 10:40:55;;;;;;;;;15.00;15.00;;;;;-143.90;100.00;75046.09;4948815;28;101783;-72
2023/11/21 10:43:25;;;;;;;;;15.25;13.75;;;;;-143.90;100.00;75050.25;4947602;28;102623;-72
2023/11/21 10:45:51;;;;;;;;;14.75;14.25;;;;;-143.90;100.00;75048.19;4946890;28;102070;-73
2023/11/21 10:48:18;;;;;;;;;17.50;14.00;;;;;-143.90;100.00;75060.59;4947098;28;103360;-73
2023/11/21 10:50:46;;;;;;;;;13.25;11.50;;;;;-143.90;100.00;75068.84;4944968;28;101510;-73
2023/11/21 10:53:13;;;;;;;;;13.00;12.00;;;;;-143.90;100.00;75085.38;4947041;28;101940;-72
2023/11/21 10:55:40;;;;;;;;;18.75;15.50;;;;;-143.90;100.00;75099.88;4945219;28;101771;-73
2023/11/21 10:58:10;;;;;;;;;12.50;12.50;;;;;-143.90;100.00;75095.72;4952022;28;103577;-73